sensor_id;sensor_type;location;lat;lon;timestamp;P1;durP1;ratioP1;P2;durP2;ratioP2
11024;SDS011;22890;51.820;8.682;2023-05-10T00:00:24;11.77;;;10.33;;
11024;SDS011;22890;51.820;8.682;2023-05-10T00:02:51;11.00;;;9.90;;
11024;SDS011;22890;51.820;8.682;2023-05-10T00:05:19;13.33;;;9.73;;
11024;SDS011;22890;51.820;8.682;2023-05-10T00:07:46;11.47;;;10.23;;
11024;SDS011;22890;51.820;8.682;2023-05-10T00:10:13;11.07;;;9.63;;
11024;SDS011;22890;51.820;8.682;2023-05-10T00:12:41;11.50;;;9.93;;
11024;SDS011;22890;51.820;8.682;2023-05-10T00:15:08;14.07;;;9.90;;
11024;SDS011;22890;51.820;8.682;2023-05-10T00:17:35;11.33;;;10.13;;
11024;SDS011;22890;51.820;8.682;2023-05-10T00:20:02;11.07;;;9.97;;
11024;SDS011;22890;51.820;8.682;2023-05-10T00:22:31;11.97;;;9.90;;
11024;SDS011;22890;51.820;8.682;2023-05-10T00:24:58;10.37;;;9.27;;
11024;SDS011;22890;51.820;8.682;2023-05-10T00:27:25;10.17;;;9.03;;
11024;SDS011;22890;51.820;8.682;2023-05-10T00:29:52;9.93;;;8.87;;
11024;SDS011;22890;51.820;8.682;2023-05-10T00:32:19;11.07;;;9.17;;
11024;SDS011;22890;51.820;8.682;2023-05-10T00:34:46;10.90;;;9.40;;
11024;SDS011;22890;51.820;8.682;2023-05-10T00:37:13;13.43;;;9.93;;
11024;SDS011;22890;51.820;8.682;2023-05-10T00:39:41;13.43;;;9.40;;
11024;SDS011;22890;51.820;8.682;2023-05-10T00:42:08;11.33;;;9.97;;
11024;SDS011;22890;51.820;8.682;2023-05-10T00:44:35;13.90;;;9.97;;
11024;SDS011;22890;51.820;8.682;2023-05-10T00:47:01;10.60;;;9.50;;
11024;SDS011;22890;51.820;8.682;2023-05-10T00:49:29;12.73;;;10.40;;
11024;SDS011;22890;51.820;8.682;2023-05-10T00:51:57;10.40;;;9.27;;
11024;SDS011;22890;51.820;8.682;2023-05-10T00:54:24;13.47;;;9.57;;
11024;SDS011;22890;51.820;8.682;2023-05-10T00:56:52;11.20;;;9.90;;
11024;SDS011;22890;51.820;8.682;2023-05-10T00:59:19;11.63;;;10.10;;
11024;SDS011;22890;51.820;8.682;2023-05-10T01:01:46;13.33;;;10.23;;
11024;SDS011;22890;51.820;8.682;2023-05-10T01:04:14;10.17;;;9.17;;
11024;SDS011;22890;51.820;8.682;2023-05-10T01:06:41;11.27;;;9.73;;
11024;SDS011;22890;51.820;8.682;2023-05-10T01:09:08;13.23;;;9.87;;
11024;SDS011;22890;51.820;8.682;2023-05-10T01:11:37;11.00;;;9.80;;
11024;SDS011;22890;51.820;8.682;2023-05-10T01:14:05;13.00;;;10.20;;
11024;SDS011;22890;51.820;8.682;2023-05-10T01:16:34;11.60;;;10.37;;
11024;SDS011;22890;51.820;8.682;2023-05-10T01:19:08;11.33;;;10.10;;
11024;SDS011;22890;51.820;8.682;2023-05-10T01:21:45;13.23;;;10.60;;
11024;SDS011;22890;51.820;8.682;2023-05-10T01:33:23;12.37;;;10.60;;
11024;SDS011;22890;51.820;8.682;2023-05-10T01:41:17;13.30;;;11.50;;
11024;SDS011;22890;51.820;8.682;2023-05-10T01:44:02;13.03;;;11.37;;
11024;SDS011;22890;51.820;8.682;2023-05-10T01:46:45;13.00;;;11.07;;
11024;SDS011;22890;51.820;8.682;2023-05-10T01:49:25;14.97;;;11.03;;
11024;SDS011;22890;51.820;8.682;2023-05-10T01:51:56;13.87;;;12.37;;
11024;SDS011;22890;51.820;8.682;2023-05-10T01:54:29;13.57;;;10.63;;
11024;SDS011;22890;51.820;8.682;2023-05-10T01:57:00;13.67;;;10.70;;
11024;SDS011;22890;51.820;8.682;2023-05-10T01:59:33;16.13;;;11.83;;
11024;SDS011;22890;51.820;8.682;2023-05-10T02:02:03;12.40;;;9.87;;
11024;SDS011;22890;51.820;8.682;2023-05-10T02:04:31;15.50;;;9.53;;
11024;SDS011;22890;51.820;8.682;2023-05-10T02:07:01;12.50;;;7.93;;
11024;SDS011;22890;51.820;8.682;2023-05-10T02:09:29;10.67;;;7.73;;
11024;SDS011;22890;51.820;8.682;2023-05-10T02:11:58;6.70;;;6.00;;
11024;SDS011;22890;51.820;8.682;2023-05-10T02:14:28;11.47;;;6.20;;
11024;SDS011;22890;51.820;8.682;2023-05-10T02:17:02;7.80;;;6.30;;
11024;SDS011;22890;51.820;8.682;2023-05-10T02:19:30;7.23;;;6.07;;
11024;SDS011;22890;51.820;8.682;2023-05-10T02:21:58;12.30;;;6.40;;
11024;SDS011;22890;51.820;8.682;2023-05-10T02:24:26;9.37;;;6.47;;
11024;SDS011;22890;51.820;8.682;2023-05-10T02:26:54;9.47;;;7.03;;
11024;SDS011;22890;51.820;8.682;2023-05-10T02:29:22;9.17;;;7.10;;
11024;SDS011;22890;51.820;8.682;2023-05-10T02:31:54;8.00;;;6.37;;
11024;SDS011;22890;51.820;8.682;2023-05-10T02:34:22;11.20;;;7.30;;
11024;SDS011;22890;51.820;8.682;2023-05-10T02:36:51;5.50;;;4.77;;
11024;SDS011;22890;51.820;8.682;2023-05-10T02:39:19;5.77;;;4.23;;
11024;SDS011;22890;51.820;8.682;2023-05-10T02:41:48;22.40;;;4.10;;
11024;SDS011;22890;51.820;8.682;2023-05-10T02:44:17;4.27;;;3.87;;
11024;SDS011;22890;51.820;8.682;2023-05-10T02:46:45;4.73;;;4.23;;
11024;SDS011;22890;51.820;8.682;2023-05-10T02:49:13;6.93;;;5.63;;
11024;SDS011;22890;51.820;8.682;2023-05-10T02:51:50;7.57;;;6.27;;
11024;SDS011;22890;51.820;8.682;2023-05-10T02:54:24;8.83;;;6.83;;
11024;SDS011;22890;51.820;8.682;2023-05-10T02:56:59;8.40;;;6.77;;
11024;SDS011;22890;51.820;8.682;2023-05-10T02:59:30;8.23;;;6.77;;
11024;SDS011;22890;51.820;8.682;2023-05-10T03:01:57;8.73;;;7.50;;
11024;SDS011;22890;51.820;8.682;2023-05-10T03:04:24;11.53;;;7.30;;
11024;SDS011;22890;51.820;8.682;2023-05-10T03:06:53;8.93;;;7.07;;
11024;SDS011;22890;51.820;8.682;2023-05-10T03:09:21;10.50;;;8.00;;
11024;SDS011;22890;51.820;8.682;2023-05-10T03:14:53;11.33;;;9.20;;
11024;SDS011;22890;51.820;8.682;2023-05-10T03:17:35;11.73;;;9.23;;
11024;SDS011;22890;51.820;8.682;2023-05-10T03:20:18;10.07;;;8.23;;
11024;SDS011;22890;51.820;8.682;2023-05-10T03:22:51;12.90;;;10.30;;
11024;SDS011;22890;51.820;8.682;2023-05-10T03:25:34;10.03;;;8.60;;
11024;SDS011;22890;51.820;8.682;2023-05-10T03:28:03;10.37;;;9.27;;
11024;SDS011;22890;51.820;8.682;2023-05-10T03:30:32;10.17;;;9.00;;
11024;SDS011;22890;51.820;8.682;2023-05-10T03:33:04;10.87;;;8.80;;
11024;SDS011;22890;51.820;8.682;2023-05-10T03:35:34;10.27;;;9.03;;
11024;SDS011;22890;51.820;8.682;2023-05-10T03:38:02;9.53;;;8.03;;
11024;SDS011;22890;51.820;8.682;2023-05-10T03:40:30;9.23;;;8.37;;
11024;SDS011;22890;51.820;8.682;2023-05-10T03:42:58;9.33;;;8.33;;
11024;SDS011;22890;51.820;8.682;2023-05-10T03:45:25;9.10;;;8.20;;
11024;SDS011;22890;51.820;8.682;2023-05-10T03:47:52;10.23;;;9.07;;
11024;SDS011;22890;51.820;8.682;2023-05-10T03:50:20;8.60;;;7.80;;
11024;SDS011;22890;51.820;8.682;2023-05-10T03:52:47;7.80;;;6.97;;
11024;SDS011;22890;51.820;8.682;2023-05-10T03:55:14;8.83;;;7.63;;
11024;SDS011;22890;51.820;8.682;2023-05-10T03:57:42;8.97;;;7.50;;
11024;SDS011;22890;51.820;8.682;2023-05-10T04:00:10;8.93;;;8.00;;
11024;SDS011;22890;51.820;8.682;2023-05-10T04:02:40;8.60;;;7.23;;
11024;SDS011;22890;51.820;8.682;2023-05-10T04:05:10;6.20;;;5.60;;
11024;SDS011;22890;51.820;8.682;2023-05-10T04:07:38;6.23;;;5.70;;
11024;SDS011;22890;51.820;8.682;2023-05-10T04:10:05;5.83;;;5.33;;
11024;SDS011;22890;51.820;8.682;2023-05-10T04:12:33;5.60;;;5.10;;
11024;SDS011;22890;51.820;8.682;2023-05-10T04:15:00;5.70;;;5.20;;
11024;SDS011;22890;51.820;8.682;2023-05-10T04:17:27;5.70;;;5.20;;
11024;SDS011;22890;51.820;8.682;2023-05-10T04:19:55;5.30;;;4.80;;
11024;SDS011;22890;51.820;8.682;2023-05-10T04:22:22;5.10;;;4.30;;
11024;SDS011;22890;51.820;8.682;2023-05-10T04:24:49;4.33;;;3.93;;
11024;SDS011;22890;51.820;8.682;2023-05-10T04:27:16;4.47;;;4.07;;
11024;SDS011;22890;51.820;8.682;2023-05-10T04:29:43;3.70;;;3.40;;
11024;SDS011;22890;51.820;8.682;2023-05-10T04:32:10;5.53;;;3.97;;
11024;SDS011;22890;51.820;8.682;2023-05-10T04:34:37;3.63;;;3.33;;
11024;SDS011;22890;51.820;8.682;2023-05-10T04:37:04;4.30;;;3.40;;
11024;SDS011;22890;51.820;8.682;2023-05-10T04:39:32;3.00;;;2.70;;
11024;SDS011;22890;51.820;8.682;2023-05-10T04:41:59;2.30;;;2.10;;
11024;SDS011;22890;51.820;8.682;2023-05-10T04:44:25;3.33;;;2.13;;
11024;SDS011;22890;51.820;8.682;2023-05-10T04:46:52;3.00;;;2.43;;
11024;SDS011;22890;51.820;8.682;2023-05-10T04:49:19;1.87;;;1.67;;
11024;SDS011;22890;51.820;8.682;2023-05-10T04:51:46;1.70;;;1.60;;
11024;SDS011;22890;51.820;8.682;2023-05-10T04:54:13;1.57;;;1.40;;
11024;SDS011;22890;51.820;8.682;2023-05-10T04:56:40;1.30;;;1.20;;
11024;SDS011;22890;51.820;8.682;2023-05-10T04:59:07;1.37;;;1.30;;
11024;SDS011;22890;51.820;8.682;2023-05-10T05:01:34;1.50;;;1.40;;
11024;SDS011;22890;51.820;8.682;2023-05-10T05:04:01;2.07;;;1.17;;
11024;SDS011;22890;51.820;8.682;2023-05-10T05:06:28;2.27;;;1.40;;
11024;SDS011;22890;51.820;8.682;2023-05-10T05:08:56;1.67;;;1.57;;
11024;SDS011;22890;51.820;8.682;2023-05-10T05:11:23;1.57;;;1.47;;
11024;SDS011;22890;51.820;8.682;2023-05-10T05:13:50;1.53;;;1.43;;
11024;SDS011;22890;51.820;8.682;2023-05-10T05:16:17;1.90;;;1.77;;
11024;SDS011;22890;51.820;8.682;2023-05-10T05:18:44;2.00;;;1.73;;
11024;SDS011;22890;51.820;8.682;2023-05-10T05:21:18;1.57;;;1.47;;
11024;SDS011;22890;51.820;8.682;2023-05-10T05:23:45;1.63;;;1.53;;
11024;SDS011;22890;51.820;8.682;2023-05-10T05:26:12;2.83;;;1.83;;
11024;SDS011;22890;51.820;8.682;2023-05-10T05:28:41;2.03;;;1.80;;
11024;SDS011;22890;51.820;8.682;2023-05-10T05:31:08;1.77;;;1.67;;
11024;SDS011;22890;51.820;8.682;2023-05-10T05:33:35;3.47;;;1.87;;
11024;SDS011;22890;51.820;8.682;2023-05-10T05:36:03;1.77;;;1.67;;
11024;SDS011;22890;51.820;8.682;2023-05-10T05:38:31;2.07;;;1.87;;
11024;SDS011;22890;51.820;8.682;2023-05-10T05:40:58;2.93;;;1.90;;
11024;SDS011;22890;51.820;8.682;2023-05-10T05:43:26;2.10;;;1.90;;
11024;SDS011;22890;51.820;8.682;2023-05-10T05:45:53;2.40;;;2.20;;
11024;SDS011;22890;51.820;8.682;2023-05-10T05:48:20;2.53;;;2.33;;
11024;SDS011;22890;51.820;8.682;2023-05-10T05:50:47;3.20;;;2.50;;
11024;SDS011;22890;51.820;8.682;2023-05-10T05:53:14;2.40;;;2.20;;
11024;SDS011;22890;51.820;8.682;2023-05-10T05:55:54;2.80;;;2.60;;
11024;SDS011;22890;51.820;8.682;2023-05-10T05:58:22;3.47;;;2.70;;
11024;SDS011;22890;51.820;8.682;2023-05-10T06:00:48;2.97;;;2.43;;
11024;SDS011;22890;51.820;8.682;2023-05-10T06:03:16;3.23;;;2.53;;
11024;SDS011;22890;51.820;8.682;2023-05-10T06:05:43;3.40;;;3.10;;
11024;SDS011;22890;51.820;8.682;2023-05-10T06:08:10;3.57;;;2.77;;
11024;SDS011;22890;51.820;8.682;2023-05-10T06:10:37;3.63;;;2.87;;
11024;SDS011;22890;51.820;8.682;2023-05-10T06:13:04;3.07;;;2.83;;
11024;SDS011;22890;51.820;8.682;2023-05-10T06:15:31;2.80;;;2.40;;
11024;SDS011;22890;51.820;8.682;2023-05-10T06:17:58;3.10;;;2.53;;
11024;SDS011;22890;51.820;8.682;2023-05-10T06:20:25;2.80;;;2.50;;
11024;SDS011;22890;51.820;8.682;2023-05-10T06:22:52;4.70;;;2.70;;
11024;SDS011;22890;51.820;8.682;2023-05-10T06:25:19;3.83;;;2.80;;
11024;SDS011;22890;51.820;8.682;2023-05-10T06:27:47;3.93;;;2.27;;
11024;SDS011;22890;51.820;8.682;2023-05-10T06:30:18;3.30;;;2.60;;
11024;SDS011;22890;51.820;8.682;2023-05-10T06:32:46;4.43;;;2.53;;
11024;SDS011;22890;51.820;8.682;2023-05-10T06:35:13;3.20;;;2.47;;
11024;SDS011;22890;51.820;8.682;2023-05-10T06:37:40;3.73;;;2.60;;
11024;SDS011;22890;51.820;8.682;2023-05-10T06:40:07;3.63;;;2.93;;
11024;SDS011;22890;51.820;8.682;2023-05-10T06:42:35;4.43;;;2.70;;
11024;SDS011;22890;51.820;8.682;2023-05-10T06:45:02;8.00;;;3.23;;
11024;SDS011;22890;51.820;8.682;2023-05-10T06:47:31;5.97;;;2.93;;
11024;SDS011;22890;51.820;8.682;2023-05-10T06:49:58;4.20;;;2.97;;
11024;SDS011;22890;51.820;8.682;2023-05-10T06:52:25;5.53;;;2.80;;
11024;SDS011;22890;51.820;8.682;2023-05-10T06:54:51;4.33;;;2.80;;
11024;SDS011;22890;51.820;8.682;2023-05-10T06:57:18;4.47;;;2.77;;
11024;SDS011;22890;51.820;8.682;2023-05-10T07:00:00;4.23;;;2.80;;
11024;SDS011;22890;51.820;8.682;2023-05-10T07:02:27;3.83;;;2.53;;
11024;SDS011;22890;51.820;8.682;2023-05-10T07:04:54;5.53;;;3.03;;
11024;SDS011;22890;51.820;8.682;2023-05-10T07:07:24;5.17;;;2.67;;
11024;SDS011;22890;51.820;8.682;2023-05-10T07:09:51;4.67;;;2.53;;
11024;SDS011;22890;51.820;8.682;2023-05-10T07:12:18;4.07;;;2.60;;
11024;SDS011;22890;51.820;8.682;2023-05-10T07:14:45;3.03;;;2.20;;
11024;SDS011;22890;51.820;8.682;2023-05-10T07:17:12;3.80;;;2.60;;
11024;SDS011;22890;51.820;8.682;2023-05-10T07:19:39;4.60;;;2.90;;
11024;SDS011;22890;51.820;8.682;2023-05-10T07:22:06;6.47;;;2.77;;
11024;SDS011;22890;51.820;8.682;2023-05-10T07:24:33;4.30;;;3.00;;
11024;SDS011;22890;51.820;8.682;2023-05-10T07:27:00;4.33;;;2.97;;
11024;SDS011;22890;51.820;8.682;2023-05-10T07:29:28;4.73;;;3.13;;
11024;SDS011;22890;51.820;8.682;2023-05-10T07:31:55;5.57;;;3.30;;
11024;SDS011;22890;51.820;8.682;2023-05-10T07:34:24;3.67;;;2.87;;
11024;SDS011;22890;51.820;8.682;2023-05-10T07:36:51;3.60;;;3.23;;
11024;SDS011;22890;51.820;8.682;2023-05-10T07:39:18;7.03;;;3.37;;
11024;SDS011;22890;51.820;8.682;2023-05-10T07:41:53;11.83;;;5.13;;
11024;SDS011;22890;51.820;8.682;2023-05-10T07:44:20;6.27;;;4.87;;
11024;SDS011;22890;51.820;8.682;2023-05-10T07:46:47;6.10;;;5.50;;
11024;SDS011;22890;51.820;8.682;2023-05-10T07:49:15;6.10;;;5.50;;
11024;SDS011;22890;51.820;8.682;2023-05-10T07:51:42;7.80;;;6.27;;
11024;SDS011;22890;51.820;8.682;2023-05-10T07:54:09;6.93;;;6.27;;
11024;SDS011;22890;51.820;8.682;2023-05-10T07:56:36;7.90;;;6.30;;
11024;SDS011;22890;51.820;8.682;2023-05-10T07:59:04;12.87;;;6.47;;
11024;SDS011;22890;51.820;8.682;2023-05-10T08:01:34;7.47;;;6.40;;
11024;SDS011;22890;51.820;8.682;2023-05-10T08:04:01;10.23;;;7.37;;
11024;SDS011;22890;51.820;8.682;2023-05-10T08:06:28;11.70;;;7.97;;
11024;SDS011;22890;51.820;8.682;2023-05-10T08:08:56;12.83;;;8.17;;
11024;SDS011;22890;51.820;8.682;2023-05-10T08:11:23;10.43;;;7.83;;
11024;SDS011;22890;51.820;8.682;2023-05-10T08:13:50;14.00;;;6.83;;
11024;SDS011;22890;51.820;8.682;2023-05-10T08:16:18;11.80;;;8.77;;
11024;SDS011;22890;51.820;8.682;2023-05-10T08:18:45;10.53;;;8.10;;
11024;SDS011;22890;51.820;8.682;2023-05-10T08:21:13;13.63;;;9.23;;
11024;SDS011;22890;51.820;8.682;2023-05-10T08:23:41;11.57;;;8.70;;
11024;SDS011;22890;51.820;8.682;2023-05-10T08:26:09;9.40;;;7.60;;
11024;SDS011;22890;51.820;8.682;2023-05-10T08:28:36;11.23;;;8.30;;
11024;SDS011;22890;51.820;8.682;2023-05-10T08:31:04;10.77;;;8.60;;
11024;SDS011;22890;51.820;8.682;2023-05-10T08:33:31;11.50;;;9.03;;
11024;SDS011;22890;51.820;8.682;2023-05-10T08:35:58;12.23;;;10.10;;
11024;SDS011;22890;51.820;8.682;2023-05-10T08:38:25;12.63;;;9.67;;
11024;SDS011;22890;51.820;8.682;2023-05-10T08:40:52;17.40;;;11.27;;
11024;SDS011;22890;51.820;8.682;2023-05-10T08:43:23;18.90;;;12.10;;
11024;SDS011;22890;51.820;8.682;2023-05-10T08:45:54;18.67;;;13.40;;
11024;SDS011;22890;51.820;8.682;2023-05-10T08:48:23;19.63;;;11.77;;
11024;SDS011;22890;51.820;8.682;2023-05-10T08:50:52;19.60;;;12.17;;
11024;SDS011;22890;51.820;8.682;2023-05-10T08:53:23;18.87;;;12.80;;
11024;SDS011;22890;51.820;8.682;2023-05-10T08:55:52;16.93;;;11.87;;
11024;SDS011;22890;51.820;8.682;2023-05-10T08:58:19;17.80;;;12.27;;
11024;SDS011;22890;51.820;8.682;2023-05-10T09:00:48;16.00;;;10.67;;
11024;SDS011;22890;51.820;8.682;2023-05-10T09:03:16;14.73;;;9.97;;
11024;SDS011;22890;51.820;8.682;2023-05-10T09:05:44;13.83;;;9.93;;
11024;SDS011;22890;51.820;8.682;2023-05-10T09:08:11;13.53;;;10.60;;
11024;SDS011;22890;51.820;8.682;2023-05-10T09:10:39;16.03;;;11.20;;
11024;SDS011;22890;51.820;8.682;2023-05-10T09:13:07;15.07;;;11.07;;
11024;SDS011;22890;51.820;8.682;2023-05-10T09:15:36;15.50;;;11.27;;
11024;SDS011;22890;51.820;8.682;2023-05-10T09:18:03;16.90;;;11.83;;
11024;SDS011;22890;51.820;8.682;2023-05-10T09:20:30;17.70;;;11.70;;
11024;SDS011;22890;51.820;8.682;2023-05-10T09:22:57;15.40;;;11.70;;
11024;SDS011;22890;51.820;8.682;2023-05-10T09:25:24;16.10;;;12.03;;
11024;SDS011;22890;51.820;8.682;2023-05-10T09:27:51;17.80;;;11.47;;
11024;SDS011;22890;51.820;8.682;2023-05-10T09:30:25;18.57;;;11.47;;
11024;SDS011;22890;51.820;8.682;2023-05-10T09:32:54;16.70;;;11.90;;
11024;SDS011;22890;51.820;8.682;2023-05-10T09:35:23;18.73;;;12.37;;
11024;SDS011;22890;51.820;8.682;2023-05-10T09:37:55;17.87;;;12.67;;
11024;SDS011;22890;51.820;8.682;2023-05-10T09:40:26;19.07;;;13.00;;
11024;SDS011;22890;51.820;8.682;2023-05-10T09:42:58;22.30;;;13.83;;
11024;SDS011;22890;51.820;8.682;2023-05-10T09:45:26;21.07;;;14.07;;
11024;SDS011;22890;51.820;8.682;2023-05-10T09:47:55;22.33;;;14.13;;
11024;SDS011;22890;51.820;8.682;2023-05-10T09:50:22;20.73;;;12.83;;
11024;SDS011;22890;51.820;8.682;2023-05-10T09:52:51;21.07;;;13.37;;
11024;SDS011;22890;51.820;8.682;2023-05-10T09:58:06;18.77;;;12.93;;
11024;SDS011;22890;51.820;8.682;2023-05-10T10:00:37;17.57;;;12.63;;
11024;SDS011;22890;51.820;8.682;2023-05-10T10:03:12;17.83;;;12.37;;
11024;SDS011;22890;51.820;8.682;2023-05-10T10:05:40;16.40;;;11.90;;
11024;SDS011;22890;51.820;8.682;2023-05-10T10:08:09;19.57;;;12.47;;
11024;SDS011;22890;51.820;8.682;2023-05-10T10:10:36;15.00;;;11.10;;
11024;SDS011;22890;51.820;8.682;2023-05-10T10:13:04;16.63;;;11.67;;
11024;SDS011;22890;51.820;8.682;2023-05-10T10:15:32;21.90;;;11.53;;
11024;SDS011;22890;51.820;8.682;2023-05-10T10:18:00;15.70;;;12.57;;
11024;SDS011;22890;51.820;8.682;2023-05-10T10:20:29;17.33;;;12.20;;
11024;SDS011;22890;51.820;8.682;2023-05-10T10:22:56;16.63;;;12.20;;
11024;SDS011;22890;51.820;8.682;2023-05-10T10:25:23;17.70;;;11.23;;
11024;SDS011;22890;51.820;8.682;2023-05-10T10:30:21;15.13;;;11.07;;
11024;SDS011;22890;51.820;8.682;2023-05-10T10:35:54;12.20;;;9.73;;
11024;SDS011;22890;51.820;8.682;2023-05-10T10:38:21;14.83;;;9.47;;
11024;SDS011;22890;51.820;8.682;2023-05-10T10:40:49;13.37;;;8.93;;
11024;SDS011;22890;51.820;8.682;2023-05-10T10:43:28;12.40;;;9.23;;
11024;SDS011;22890;51.820;8.682;2023-05-10T10:46:17;12.70;;;8.90;;
11024;SDS011;22890;51.820;8.682;2023-05-10T10:48:47;10.87;;;8.50;;
11024;SDS011;22890;51.820;8.682;2023-05-10T10:51:37;13.10;;;11.20;;
11024;SDS011;22890;51.820;8.682;2023-05-10T10:54:11;12.03;;;9.90;;
11024;SDS011;22890;51.820;8.682;2023-05-10T10:56:38;13.20;;;9.67;;
11024;SDS011;22890;51.820;8.682;2023-05-10T10:59:05;11.53;;;9.97;;
11024;SDS011;22890;51.820;8.682;2023-05-10T11:01:33;14.03;;;11.43;;
11024;SDS011;22890;51.820;8.682;2023-05-10T11:06:31;15.80;;;10.70;;
11024;SDS011;22890;51.820;8.682;2023-05-10T11:08:59;13.03;;;9.03;;
11024;SDS011;22890;51.820;8.682;2023-05-10T11:11:32;10.77;;;8.77;;
11024;SDS011;22890;51.820;8.682;2023-05-10T11:14:04;13.50;;;10.03;;
11024;SDS011;22890;51.820;8.682;2023-05-10T11:16:42;12.70;;;9.47;;
11024;SDS011;22890;51.820;8.682;2023-05-10T11:19:11;13.83;;;9.57;;
11024;SDS011;22890;51.820;8.682;2023-05-10T11:24:17;12.20;;;9.20;;
11024;SDS011;22890;51.820;8.682;2023-05-10T11:26:46;15.77;;;9.63;;
11024;SDS011;22890;51.820;8.682;2023-05-10T11:29:16;11.90;;;8.83;;
11024;SDS011;22890;51.820;8.682;2023-05-10T11:31:44;13.33;;;9.70;;
11024;SDS011;22890;51.820;8.682;2023-05-10T11:34:25;13.80;;;9.83;;
11024;SDS011;22890;51.820;8.682;2023-05-10T11:36:57;12.53;;;9.63;;
11024;SDS011;22890;51.820;8.682;2023-05-10T11:39:28;12.83;;;8.90;;
11024;SDS011;22890;51.820;8.682;2023-05-10T11:41:55;14.13;;;10.43;;
11024;SDS011;22890;51.820;8.682;2023-05-10T11:44:22;11.33;;;9.00;;
11024;SDS011;22890;51.820;8.682;2023-05-10T11:46:49;13.97;;;9.40;;
11024;SDS011;22890;51.820;8.682;2023-05-10T11:49:17;15.73;;;10.97;;
11024;SDS011;22890;51.820;8.682;2023-05-10T11:51:44;13.77;;;9.37;;
11024;SDS011;22890;51.820;8.682;2023-05-10T11:54:12;12.80;;;10.00;;
11024;SDS011;22890;51.820;8.682;2023-05-10T11:56:39;12.00;;;9.30;;
11024;SDS011;22890;51.820;8.682;2023-05-10T11:59:06;13.13;;;8.47;;
11024;SDS011;22890;51.820;8.682;2023-05-10T12:01:34;9.93;;;8.27;;
11024;SDS011;22890;51.820;8.682;2023-05-10T12:04:01;10.50;;;8.20;;
11024;SDS011;22890;51.820;8.682;2023-05-10T12:06:29;12.20;;;8.57;;
11024;SDS011;22890;51.820;8.682;2023-05-10T12:08:58;14.27;;;10.27;;
11024;SDS011;22890;51.820;8.682;2023-05-10T12:11:26;19.30;;;10.63;;
11024;SDS011;22890;51.820;8.682;2023-05-10T12:13:54;14.00;;;9.43;;
11024;SDS011;22890;51.820;8.682;2023-05-10T12:16:23;14.17;;;9.67;;
11024;SDS011;22890;51.820;8.682;2023-05-10T12:18:58;11.80;;;8.10;;
11024;SDS011;22890;51.820;8.682;2023-05-10T12:21:27;9.03;;;6.60;;
11024;SDS011;22890;51.820;8.682;2023-05-10T12:23:59;10.20;;;5.83;;
11024;SDS011;22890;51.820;8.682;2023-05-10T12:26:29;9.50;;;6.00;;
11024;SDS011;22890;51.820;8.682;2023-05-10T12:29:15;9.73;;;6.20;;
11024;SDS011;22890;51.820;8.682;2023-05-10T12:34:26;8.87;;;5.07;;
11024;SDS011;22890;51.820;8.682;2023-05-10T12:36:55;7.13;;;4.40;;
11024;SDS011;22890;51.820;8.682;2023-05-10T12:39:23;4.90;;;4.07;;
11024;SDS011;22890;51.820;8.682;2023-05-10T12:41:50;7.20;;;4.33;;
11024;SDS011;22890;51.820;8.682;2023-05-10T12:44:18;5.70;;;4.53;;
11024;SDS011;22890;51.820;8.682;2023-05-10T12:46:45;8.23;;;4.70;;
11024;SDS011;22890;51.820;8.682;2023-05-10T12:49:12;6.67;;;4.73;;
11024;SDS011;22890;51.820;8.682;2023-05-10T12:51:39;6.83;;;5.93;;
11024;SDS011;22890;51.820;8.682;2023-05-10T12:54:06;8.87;;;5.63;;
11024;SDS011;22890;51.820;8.682;2023-05-10T12:56:33;6.50;;;5.80;;
11024;SDS011;22890;51.820;8.682;2023-05-10T12:59:00;8.70;;;6.70;;
11024;SDS011;22890;51.820;8.682;2023-05-10T13:01:27;7.37;;;5.53;;
11024;SDS011;22890;51.820;8.682;2023-05-10T13:03:54;7.40;;;5.80;;
11024;SDS011;22890;51.820;8.682;2023-05-10T13:06:21;7.73;;;5.90;;
11024;SDS011;22890;51.820;8.682;2023-05-10T13:08:48;7.23;;;5.73;;
11024;SDS011;22890;51.820;8.682;2023-05-10T13:11:15;7.30;;;5.93;;
11024;SDS011;22890;51.820;8.682;2023-05-10T13:13:43;9.47;;;6.20;;
11024;SDS011;22890;51.820;8.682;2023-05-10T13:16:09;7.73;;;6.00;;
11024;SDS011;22890;51.820;8.682;2023-05-10T13:18:36;11.97;;;7.03;;
11024;SDS011;22890;51.820;8.682;2023-05-10T13:21:03;12.23;;;7.27;;
11024;SDS011;22890;51.820;8.682;2023-05-10T13:23:31;9.37;;;6.10;;
11024;SDS011;22890;51.820;8.682;2023-05-10T13:25:58;9.53;;;6.10;;
11024;SDS011;22890;51.820;8.682;2023-05-10T13:28:24;8.63;;;5.77;;
11024;SDS011;22890;51.820;8.682;2023-05-10T13:30:52;11.33;;;5.80;;
11024;SDS011;22890;51.820;8.682;2023-05-10T13:33:19;6.20;;;5.00;;
11024;SDS011;22890;51.820;8.682;2023-05-10T13:35:46;6.93;;;5.17;;
11024;SDS011;22890;51.820;8.682;2023-05-10T13:38:13;8.77;;;4.53;;
11024;SDS011;22890;51.820;8.682;2023-05-10T13:40:40;4.13;;;2.53;;
11024;SDS011;22890;51.820;8.682;2023-05-10T13:43:07;2.40;;;2.00;;
11024;SDS011;22890;51.820;8.682;2023-05-10T13:45:34;3.00;;;2.27;;
11024;SDS011;22890;51.820;8.682;2023-05-10T13:48:01;3.23;;;2.40;;
11024;SDS011;22890;51.820;8.682;2023-05-10T13:50:29;5.47;;;4.27;;
11024;SDS011;22890;51.820;8.682;2023-05-10T13:52:56;6.53;;;4.37;;
11024;SDS011;22890;51.820;8.682;2023-05-10T13:55:23;6.30;;;5.33;;
11024;SDS011;22890;51.820;8.682;2023-05-10T13:57:50;7.37;;;4.43;;
11024;SDS011;22890;51.820;8.682;2023-05-10T14:00:16;8.03;;;6.10;;
11024;SDS011;22890;51.820;8.682;2023-05-10T14:02:44;12.73;;;8.37;;
11024;SDS011;22890;51.820;8.682;2023-05-10T14:05:11;10.03;;;8.00;;
11024;SDS011;22890;51.820;8.682;2023-05-10T14:07:39;12.60;;;8.73;;
11024;SDS011;22890;51.820;8.682;2023-05-10T14:10:06;15.30;;;10.13;;
11024;SDS011;22890;51.820;8.682;2023-05-10T14:12:33;11.80;;;9.10;;
11024;SDS011;22890;51.820;8.682;2023-05-10T14:15:00;14.27;;;9.80;;
11024;SDS011;22890;51.820;8.682;2023-05-10T14:17:27;17.97;;;10.10;;
11024;SDS011;22890;51.820;8.682;2023-05-10T14:19:54;12.33;;;8.80;;
11024;SDS011;22890;51.820;8.682;2023-05-10T14:22:21;12.50;;;8.20;;
11024;SDS011;22890;51.820;8.682;2023-05-10T14:24:48;11.77;;;7.90;;
11024;SDS011;22890;51.820;8.682;2023-05-10T14:27:16;9.47;;;7.53;;
11024;SDS011;22890;51.820;8.682;2023-05-10T14:29:42;9.47;;;7.60;;
11024;SDS011;22890;51.820;8.682;2023-05-10T14:32:09;12.70;;;8.80;;
11024;SDS011;22890;51.820;8.682;2023-05-10T14:34:36;13.80;;;9.73;;
11024;SDS011;22890;51.820;8.682;2023-05-10T14:37:03;14.37;;;10.10;;
11024;SDS011;22890;51.820;8.682;2023-05-10T14:39:30;18.47;;;11.73;;
11024;SDS011;22890;51.820;8.682;2023-05-10T14:41:59;18.10;;;11.07;;
11024;SDS011;22890;51.820;8.682;2023-05-10T14:44:26;13.80;;;10.50;;
11024;SDS011;22890;51.820;8.682;2023-05-10T14:46:53;17.20;;;10.80;;
11024;SDS011;22890;51.820;8.682;2023-05-10T14:49:21;20.17;;;10.23;;
11024;SDS011;22890;51.820;8.682;2023-05-10T14:51:50;14.07;;;10.10;;
11024;SDS011;22890;51.820;8.682;2023-05-10T14:54:17;21.20;;;10.07;;
11024;SDS011;22890;51.820;8.682;2023-05-10T14:56:44;14.57;;;7.77;;
11024;SDS011;22890;51.820;8.682;2023-05-10T14:59:11;11.27;;;7.63;;
11024;SDS011;22890;51.820;8.682;2023-05-10T15:01:39;10.80;;;6.03;;
11024;SDS011;22890;51.820;8.682;2023-05-10T15:04:08;10.97;;;7.80;;
11024;SDS011;22890;51.820;8.682;2023-05-10T15:06:36;11.47;;;6.77;;
11024;SDS011;22890;51.820;8.682;2023-05-10T15:09:03;9.83;;;7.93;;
11024;SDS011;22890;51.820;8.682;2023-05-10T15:11:29;12.30;;;8.10;;
11024;SDS011;22890;51.820;8.682;2023-05-10T15:13:57;11.00;;;7.43;;
11024;SDS011;22890;51.820;8.682;2023-05-10T15:16:24;10.20;;;7.43;;
11024;SDS011;22890;51.820;8.682;2023-05-10T15:18:51;9.77;;;6.73;;